sensor_id;sensor_type;location;lat;lon;timestamp;P1;durP1;ratioP1;P2;durP2;ratioP2
55312;SDS011;46892;45.668;11.756;2023-06-26T00:01:15;6.10;;;3.80;;
55312;SDS011;46892;45.668;11.756;2023-06-26T00:03:40;7.57;;;4.90;;
55312;SDS011;46892;45.668;11.756;2023-06-26T00:06:06;6.63;;;4.00;;
55312;SDS011;46892;45.668;11.756;2023-06-26T00:08:32;9.07;;;4.93;;
55312;SDS011;46892;45.668;11.756;2023-06-26T00:10:58;7.67;;;4.03;;
55312;SDS011;46892;45.668;11.756;2023-06-26T00:13:24;8.67;;;4.30;;
55312;SDS011;46892;45.668;11.756;2023-06-26T00:15:50;14.60;;;4.50;;
55312;SDS011;46892;45.668;11.756;2023-06-26T00:18:16;9.40;;;4.53;;
55312;SDS011;46892;45.668;11.756;2023-06-26T00:20:42;10.87;;;4.20;;
55312;SDS011;46892;45.668;11.756;2023-06-26T00:23:07;11.53;;;4.77;;
55312;SDS011;46892;45.668;11.756;2023-06-26T00:25:33;13.13;;;4.83;;
55312;SDS011;46892;45.668;11.756;2023-06-26T00:27:59;9.80;;;4.90;;
55312;SDS011;46892;45.668;11.756;2023-06-26T00:30:25;11.77;;;4.67;;
55312;SDS011;46892;45.668;11.756;2023-06-26T00:32:51;11.63;;;4.40;;
55312;SDS011;46892;45.668;11.756;2023-06-26T00:35:17;10.60;;;4.60;;
55312;SDS011;46892;45.668;11.756;2023-06-26T00:37:42;11.00;;;4.93;;
55312;SDS011;46892;45.668;11.756;2023-06-26T00:40:08;8.80;;;5.03;;
55312;SDS011;46892;45.668;11.756;2023-06-26T00:42:34;8.77;;;4.80;;
55312;SDS011;46892;45.668;11.756;2023-06-26T00:45:00;14.60;;;4.90;;
55312;SDS011;46892;45.668;11.756;2023-06-26T00:47:26;15.70;;;4.97;;
55312;SDS011;46892;45.668;11.756;2023-06-26T00:49:52;10.33;;;4.63;;
55312;SDS011;46892;45.668;11.756;2023-06-26T00:52:19;11.07;;;4.00;;
55312;SDS011;46892;45.668;11.756;2023-06-26T00:54:45;10.07;;;4.67;;
55312;SDS011;46892;45.668;11.756;2023-06-26T00:57:11;10.23;;;4.37;;
55312;SDS011;46892;45.668;11.756;2023-06-26T00:59:37;12.23;;;4.47;;
55312;SDS011;46892;45.668;11.756;2023-06-26T01:02:03;21.50;;;4.97;;
55312;SDS011;46892;45.668;11.756;2023-06-26T01:04:29;15.43;;;4.83;;
55312;SDS011;46892;45.668;11.756;2023-06-26T01:06:57;10.23;;;4.10;;
55312;SDS011;46892;45.668;11.756;2023-06-26T01:09:24;10.07;;;4.13;;
55312;SDS011;46892;45.668;11.756;2023-06-26T01:11:51;9.67;;;3.43;;
55312;SDS011;46892;45.668;11.756;2023-06-26T01:14:17;9.07;;;4.10;;
55312;SDS011;46892;45.668;11.756;2023-06-26T01:16:43;5.67;;;3.57;;
55312;SDS011;46892;45.668;11.756;2023-06-26T01:19:24;9.23;;;4.03;;
55312;SDS011;46892;45.668;11.756;2023-06-26T01:22:00;12.20;;;3.57;;
55312;SDS011;46892;45.668;11.756;2023-06-26T01:24:42;26.33;;;5.03;;
55312;SDS011;46892;45.668;11.756;2023-06-26T01:27:14;9.30;;;3.63;;
55312;SDS011;46892;45.668;11.756;2023-06-26T01:29:40;15.67;;;4.17;;
55312;SDS011;46892;45.668;11.756;2023-06-26T01:32:09;8.03;;;3.53;;
55312;SDS011;46892;45.668;11.756;2023-06-26T01:34:34;23.20;;;4.83;;
55312;SDS011;46892;45.668;11.756;2023-06-26T01:37:01;16.43;;;4.97;;
55312;SDS011;46892;45.668;11.756;2023-06-26T01:39:26;10.70;;;3.63;;
55312;SDS011;46892;45.668;11.756;2023-06-26T01:41:52;17.33;;;4.33;;
55312;SDS011;46892;45.668;11.756;2023-06-26T01:44:31;14.07;;;4.03;;
55312;SDS011;46892;45.668;11.756;2023-06-26T01:47:02;12.10;;;3.90;;
55312;SDS011;46892;45.668;11.756;2023-06-26T01:52:36;12.47;;;4.20;;
55312;SDS011;46892;45.668;11.756;2023-06-26T01:57:52;6.83;;;3.90;;
55312;SDS011;46892;45.668;11.756;2023-06-26T02:00:21;7.20;;;4.22;;
55312;SDS011;46892;45.668;11.756;2023-06-26T02:02:49;7.60;;;3.80;;
55312;SDS011;46892;45.668;11.756;2023-06-26T02:05:15;11.27;;;4.40;;
55312;SDS011;46892;45.668;11.756;2023-06-26T02:07:41;8.43;;;3.70;;
55312;SDS011;46892;45.668;11.756;2023-06-26T02:10:07;5.40;;;3.40;;
55312;SDS011;46892;45.668;11.756;2023-06-26T02:12:34;8.87;;;3.60;;
55312;SDS011;46892;45.668;11.756;2023-06-26T02:15:01;7.47;;;3.73;;
55312;SDS011;46892;45.668;11.756;2023-06-26T02:17:27;7.13;;;3.57;;
55312;SDS011;46892;45.668;11.756;2023-06-26T02:19:53;7.13;;;3.50;;
55312;SDS011;46892;45.668;11.756;2023-06-26T02:22:19;8.33;;;3.50;;
55312;SDS011;46892;45.668;11.756;2023-06-26T02:24:44;6.57;;;3.93;;
55312;SDS011;46892;45.668;11.756;2023-06-26T02:27:10;11.77;;;3.90;;
55312;SDS011;46892;45.668;11.756;2023-06-26T02:29:36;9.33;;;3.83;;
55312;SDS011;46892;45.668;11.756;2023-06-26T02:32:02;6.83;;;3.67;;
55312;SDS011;46892;45.668;11.756;2023-06-26T02:34:28;6.80;;;3.27;;
55312;SDS011;46892;45.668;11.756;2023-06-26T02:36:55;5.37;;;3.30;;
55312;SDS011;46892;45.668;11.756;2023-06-26T02:39:21;7.10;;;3.57;;
55312;SDS011;46892;45.668;11.756;2023-06-26T02:41:47;11.93;;;3.87;;
55312;SDS011;46892;45.668;11.756;2023-06-26T02:44:12;9.27;;;4.20;;
55312;SDS011;46892;45.668;11.756;2023-06-26T02:46:39;9.13;;;3.50;;
55312;SDS011;46892;45.668;11.756;2023-06-26T02:49:05;13.73;;;4.07;;
55312;SDS011;46892;45.668;11.756;2023-06-26T02:51:32;8.83;;;3.70;;
55312;SDS011;46892;45.668;11.756;2023-06-26T02:53:58;9.47;;;4.10;;
55312;SDS011;46892;45.668;11.756;2023-06-26T02:56:24;12.57;;;3.73;;
55312;SDS011;46892;45.668;11.756;2023-06-26T02:58:54;16.05;;;4.10;;
55312;SDS011;46892;45.668;11.756;2023-06-26T03:01:22;8.27;;;3.50;;
55312;SDS011;46892;45.668;11.756;2023-06-26T03:03:48;8.60;;;3.50;;
55312;SDS011;46892;45.668;11.756;2023-06-26T03:06:14;7.20;;;3.73;;
55312;SDS011;46892;45.668;11.756;2023-06-26T03:08:40;11.87;;;4.03;;
55312;SDS011;46892;45.668;11.756;2023-06-26T03:11:06;13.10;;;4.03;;
55312;SDS011;46892;45.668;11.756;2023-06-26T03:13:36;11.40;;;4.43;;
55312;SDS011;46892;45.668;11.756;2023-06-26T03:16:03;5.90;;;3.60;;
55312;SDS011;46892;45.668;11.756;2023-06-26T03:18:29;6.80;;;3.63;;
55312;SDS011;46892;45.668;11.756;2023-06-26T03:20:55;5.57;;;3.90;;
55312;SDS011;46892;45.668;11.756;2023-06-26T03:23:22;7.43;;;4.03;;
55312;SDS011;46892;45.668;11.756;2023-06-26T03:25:48;6.57;;;4.13;;
55312;SDS011;46892;45.668;11.756;2023-06-26T03:28:15;8.07;;;4.20;;
55312;SDS011;46892;45.668;11.756;2023-06-26T03:30:40;6.60;;;3.73;;
55312;SDS011;46892;45.668;11.756;2023-06-26T03:33:06;7.30;;;3.93;;
55312;SDS011;46892;45.668;11.756;2023-06-26T03:35:32;5.63;;;3.90;;
55312;SDS011;46892;45.668;11.756;2023-06-26T03:37:58;6.13;;;4.20;;
55312;SDS011;46892;45.668;11.756;2023-06-26T03:40:24;6.53;;;4.30;;
55312;SDS011;46892;45.668;11.756;2023-06-26T03:42:49;6.83;;;4.57;;
55312;SDS011;46892;45.668;11.756;2023-06-26T03:45:15;7.63;;;5.00;;
55312;SDS011;46892;45.668;11.756;2023-06-26T03:47:41;6.80;;;3.93;;
55312;SDS011;46892;45.668;11.756;2023-06-26T03:50:07;6.17;;;4.30;;
55312;SDS011;46892;45.668;11.756;2023-06-26T03:52:33;7.60;;;4.47;;
55312;SDS011;46892;45.668;11.756;2023-06-26T03:54:58;6.57;;;4.80;;
55312;SDS011;46892;45.668;11.756;2023-06-26T03:57:24;5.83;;;4.00;;
55312;SDS011;46892;45.668;11.756;2023-06-26T03:59:50;7.03;;;4.00;;
55312;SDS011;46892;45.668;11.756;2023-06-26T04:02:17;5.80;;;3.60;;
55312;SDS011;46892;45.668;11.756;2023-06-26T04:04:43;7.27;;;4.07;;
55312;SDS011;46892;45.668;11.756;2023-06-26T04:07:09;11.97;;;4.47;;
55312;SDS011;46892;45.668;11.756;2023-06-26T04:09:35;7.37;;;3.87;;
55312;SDS011;46892;45.668;11.756;2023-06-26T04:12:01;6.80;;;4.40;;
55312;SDS011;46892;45.668;11.756;2023-06-26T04:14:27;6.57;;;3.90;;
55312;SDS011;46892;45.668;11.756;2023-06-26T04:16:53;7.83;;;4.10;;
55312;SDS011;46892;45.668;11.756;2023-06-26T04:19:19;5.90;;;4.00;;
55312;SDS011;46892;45.668;11.756;2023-06-26T04:21:44;5.63;;;3.97;;
55312;SDS011;46892;45.668;11.756;2023-06-26T04:24:10;6.30;;;4.07;;
55312;SDS011;46892;45.668;11.756;2023-06-26T04:26:36;7.43;;;3.60;;
55312;SDS011;46892;45.668;11.756;2023-06-26T04:29:06;5.57;;;3.72;;
55312;SDS011;46892;45.668;11.756;2023-06-26T04:31:32;10.33;;;4.00;;
55312;SDS011;46892;45.668;11.756;2023-06-26T04:33:58;5.93;;;3.73;;
55312;SDS011;46892;45.668;11.756;2023-06-26T04:36:25;5.33;;;3.60;;
55312;SDS011;46892;45.668;11.756;2023-06-26T04:38:54;6.47;;;3.87;;
55312;SDS011;46892;45.668;11.756;2023-06-26T04:41:20;13.97;;;4.20;;
55312;SDS011;46892;45.668;11.756;2023-06-26T04:43:46;8.53;;;4.57;;
55312;SDS011;46892;45.668;11.756;2023-06-26T04:46:12;8.83;;;4.30;;
55312;SDS011;46892;45.668;11.756;2023-06-26T04:48:38;8.57;;;4.00;;
55312;SDS011;46892;45.668;11.756;2023-06-26T04:51:04;5.10;;;3.70;;
55312;SDS011;46892;45.668;11.756;2023-06-26T04:53:29;6.77;;;4.47;;
55312;SDS011;46892;45.668;11.756;2023-06-26T04:55:55;10.67;;;4.10;;
55312;SDS011;46892;45.668;11.756;2023-06-26T04:58:21;6.70;;;4.50;;
55312;SDS011;46892;45.668;11.756;2023-06-26T05:00:47;6.37;;;3.90;;
55312;SDS011;46892;45.668;11.756;2023-06-26T05:03:13;6.93;;;4.00;;
55312;SDS011;46892;45.668;11.756;2023-06-26T05:05:42;6.17;;;3.87;;
55312;SDS011;46892;45.668;11.756;2023-06-26T05:10:42;6.78;;;3.83;;
55312;SDS011;46892;45.668;11.756;2023-06-26T05:13:08;6.57;;;4.10;;
55312;SDS011;46892;45.668;11.756;2023-06-26T05:15:34;5.87;;;4.03;;
55312;SDS011;46892;45.668;11.756;2023-06-26T05:18:00;6.87;;;3.73;;
55312;SDS011;46892;45.668;11.756;2023-06-26T05:20:25;6.97;;;3.90;;
55312;SDS011;46892;45.668;11.756;2023-06-26T05:22:51;5.50;;;3.70;;
55312;SDS011;46892;45.668;11.756;2023-06-26T05:25:18;5.07;;;3.92;;
55312;SDS011;46892;45.668;11.756;2023-06-26T05:27:46;7.35;;;4.38;;
55312;SDS011;46892;45.668;11.756;2023-06-26T05:30:14;7.38;;;4.35;;
55312;SDS011;46892;45.668;11.756;2023-06-26T05:32:40;7.63;;;4.53;;
55312;SDS011;46892;45.668;11.756;2023-06-26T05:35:07;6.70;;;4.40;;
55312;SDS011;46892;45.668;11.756;2023-06-26T05:37:33;6.22;;;4.53;;
55312;SDS011;46892;45.668;11.756;2023-06-26T05:40:00;6.88;;;4.70;;
55312;SDS011;46892;45.668;11.756;2023-06-26T05:42:28;7.97;;;5.35;;
55312;SDS011;46892;45.668;11.756;2023-06-26T05:44:55;7.32;;;5.00;;
55312;SDS011;46892;45.668;11.756;2023-06-26T05:47:21;6.93;;;4.22;;
55312;SDS011;46892;45.668;11.756;2023-06-26T05:49:46;6.38;;;4.75;;
55312;SDS011;46892;45.668;11.756;2023-06-26T05:52:12;7.45;;;4.75;;
55312;SDS011;46892;45.668;11.756;2023-06-26T05:54:39;7.35;;;5.15;;
55312;SDS011;46892;45.668;11.756;2023-06-26T05:57:05;7.78;;;4.20;;
55312;SDS011;46892;45.668;11.756;2023-06-26T05:59:31;8.55;;;5.10;;
55312;SDS011;46892;45.668;11.756;2023-06-26T06:01:57;7.78;;;4.65;;
55312;SDS011;46892;45.668;11.756;2023-06-26T06:04:23;9.48;;;4.82;;
55312;SDS011;46892;45.668;11.756;2023-06-26T06:06:49;6.45;;;4.78;;
55312;SDS011;46892;45.668;11.756;2023-06-26T06:09:15;7.43;;;4.90;;
55312;SDS011;46892;45.668;11.756;2023-06-26T06:11:41;6.13;;;4.70;;
55312;SDS011;46892;45.668;11.756;2023-06-26T06:14:06;7.22;;;4.65;;
55312;SDS011;46892;45.668;11.756;2023-06-26T06:16:32;6.57;;;4.53;;
55312;SDS011;46892;45.668;11.756;2023-06-26T06:18:58;6.47;;;4.43;;
55312;SDS011;46892;45.668;11.756;2023-06-26T06:21:24;7.35;;;5.20;;
55312;SDS011;46892;45.668;11.756;2023-06-26T06:23:49;11.75;;;5.10;;
55312;SDS011;46892;45.668;11.756;2023-06-26T06:26:15;6.97;;;4.93;;
55312;SDS011;46892;45.668;11.756;2023-06-26T06:28:41;5.95;;;4.40;;
55312;SDS011;46892;45.668;11.756;2023-06-26T06:31:06;7.13;;;4.85;;
55312;SDS011;46892;45.668;11.756;2023-06-26T06:33:32;12.80;;;5.28;;
55312;SDS011;46892;45.668;11.756;2023-06-26T06:35:58;8.15;;;5.55;;
55312;SDS011;46892;45.668;11.756;2023-06-26T06:38:23;8.35;;;5.53;;
55312;SDS011;46892;45.668;11.756;2023-06-26T06:40:49;11.73;;;5.10;;
55312;SDS011;46892;45.668;11.756;2023-06-26T06:43:16;7.63;;;5.25;;
55312;SDS011;46892;45.668;11.756;2023-06-26T06:45:41;9.13;;;5.40;;
55312;SDS011;46892;45.668;11.756;2023-06-26T06:48:07;7.72;;;5.28;;
55312;SDS011;46892;45.668;11.756;2023-06-26T06:50:33;7.18;;;5.10;;
55312;SDS011;46892;45.668;11.756;2023-06-26T06:52:59;6.82;;;5.00;;
55312;SDS011;46892;45.668;11.756;2023-06-26T06:55:24;7.05;;;5.28;;
55312;SDS011;46892;45.668;11.756;2023-06-26T06:57:51;7.10;;;4.75;;
55312;SDS011;46892;45.668;11.756;2023-06-26T07:00:16;7.22;;;5.00;;
55312;SDS011;46892;45.668;11.756;2023-06-26T07:02:43;8.15;;;5.68;;
55312;SDS011;46892;45.668;11.756;2023-06-26T07:05:10;7.20;;;5.15;;
55312;SDS011;46892;45.668;11.756;2023-06-26T07:07:36;7.75;;;4.97;;
55312;SDS011;46892;45.668;11.756;2023-06-26T07:10:06;8.23;;;5.38;;
55312;SDS011;46892;45.668;11.756;2023-06-26T07:12:34;7.32;;;4.95;;
55312;SDS011;46892;45.668;11.756;2023-06-26T07:15:03;6.80;;;5.30;;
55312;SDS011;46892;45.668;11.756;2023-06-26T07:19:55;8.25;;;5.18;;
55312;SDS011;46892;45.668;11.756;2023-06-26T07:22:21;7.43;;;5.15;;
55312;SDS011;46892;45.668;11.756;2023-06-26T07:24:47;6.72;;;4.65;;
55312;SDS011;46892;45.668;11.756;2023-06-26T07:27:16;6.50;;;5.07;;
55312;SDS011;46892;45.668;11.756;2023-06-26T07:29:44;7.68;;;4.63;;
55312;SDS011;46892;45.668;11.756;2023-06-26T07:32:09;8.90;;;5.32;;
55312;SDS011;46892;45.668;11.756;2023-06-26T07:34:35;6.35;;;4.47;;
55312;SDS011;46892;45.668;11.756;2023-06-26T07:37:01;8.02;;;5.20;;
55312;SDS011;46892;45.668;11.756;2023-06-26T07:39:27;6.63;;;4.85;;
55312;SDS011;46892;45.668;11.756;2023-06-26T07:41:53;6.55;;;5.07;;
55312;SDS011;46892;45.668;11.756;2023-06-26T07:44:19;7.30;;;5.38;;
55312;SDS011;46892;45.668;11.756;2023-06-26T07:46:45;6.72;;;4.72;;
55312;SDS011;46892;45.668;11.756;2023-06-26T07:49:11;7.68;;;5.57;;
55312;SDS011;46892;45.668;11.756;2023-06-26T07:51:37;8.38;;;5.22;;
55312;SDS011;46892;45.668;11.756;2023-06-26T07:54:03;10.07;;;5.32;;
55312;SDS011;46892;45.668;11.756;2023-06-26T07:56:29;7.55;;;5.55;;
55312;SDS011;46892;45.668;11.756;2023-06-26T07:58:54;6.00;;;4.57;;
55312;SDS011;46892;45.668;11.756;2023-06-26T08:01:22;8.25;;;4.82;;
55312;SDS011;46892;45.668;11.756;2023-06-26T08:03:49;6.57;;;5.05;;
55312;SDS011;46892;45.668;11.756;2023-06-26T08:06:14;10.07;;;5.65;;
55312;SDS011;46892;45.668;11.756;2023-06-26T08:08:40;9.35;;;5.43;;
55312;SDS011;46892;45.668;11.756;2023-06-26T08:11:06;7.70;;;5.10;;
55312;SDS011;46892;45.668;11.756;2023-06-26T08:13:32;7.18;;;5.22;;
55312;SDS011;46892;45.668;11.756;2023-06-26T08:15:57;7.47;;;5.05;;
55312;SDS011;46892;45.668;11.756;2023-06-26T08:18:23;6.68;;;5.38;;
55312;SDS011;46892;45.668;11.756;2023-06-26T08:20:49;6.88;;;4.85;;
55312;SDS011;46892;45.668;11.756;2023-06-26T08:23:14;6.78;;;4.80;;
55312;SDS011;46892;45.668;11.756;2023-06-26T08:25:40;6.68;;;4.35;;
55312;SDS011;46892;45.668;11.756;2023-06-26T08:28:06;12.50;;;4.78;;
55312;SDS011;46892;45.668;11.756;2023-06-26T08:30:32;6.90;;;4.70;;
55312;SDS011;46892;45.668;11.756;2023-06-26T08:32:58;6.45;;;4.75;;
55312;SDS011;46892;45.668;11.756;2023-06-26T08:35:23;5.82;;;4.18;;
55312;SDS011;46892;45.668;11.756;2023-06-26T08:37:49;7.25;;;5.10;;
55312;SDS011;46892;45.668;11.756;2023-06-26T08:40:18;7.43;;;5.18;;
55312;SDS011;46892;45.668;11.756;2023-06-26T08:42:44;6.85;;;5.15;;
55312;SDS011;46892;45.668;11.756;2023-06-26T08:45:10;7.25;;;4.60;;
55312;SDS011;46892;45.668;11.756;2023-06-26T08:47:37;9.32;;;5.13;;
55312;SDS011;46892;45.668;11.756;2023-06-26T08:50:12;6.60;;;4.63;;
55312;SDS011;46892;45.668;11.756;2023-06-26T08:55:26;8.85;;;4.80;;
55312;SDS011;46892;45.668;11.756;2023-06-26T08:57:54;7.65;;;4.90;;
55312;SDS011;46892;45.668;11.756;2023-06-26T09:00:19;7.50;;;4.80;;
55312;SDS011;46892;45.668;11.756;2023-06-26T09:02:45;8.18;;;5.15;;
55312;SDS011;46892;45.668;11.756;2023-06-26T09:05:11;8.13;;;5.13;;
55312;SDS011;46892;45.668;11.756;2023-06-26T09:07:37;7.57;;;5.32;;
55312;SDS011;46892;45.668;11.756;2023-06-26T09:10:03;10.57;;;5.22;;
55312;SDS011;46892;45.668;11.756;2023-06-26T09:12:29;9.38;;;4.72;;
55312;SDS011;46892;45.668;11.756;2023-06-26T09:14:56;7.88;;;4.85;;
55312;SDS011;46892;45.668;11.756;2023-06-26T09:17:25;6.78;;;4.60;;
55312;SDS011;46892;45.668;11.756;2023-06-26T09:19:55;8.18;;;4.70;;
55312;SDS011;46892;45.668;11.756;2023-06-26T09:22:21;9.52;;;5.07;;
55312;SDS011;46892;45.668;11.756;2023-06-26T09:24:48;7.88;;;4.90;;
55312;SDS011;46892;45.668;11.756;2023-06-26T09:27:13;7.43;;;4.88;;
55312;SDS011;46892;45.668;11.756;2023-06-26T09:29:39;9.50;;;5.25;;
55312;SDS011;46892;45.668;11.756;2023-06-26T09:32:05;8.15;;;5.78;;
55312;SDS011;46892;45.668;11.756;2023-06-26T09:34:33;7.72;;;5.75;;
55312;SDS011;46892;45.668;11.756;2023-06-26T09:36:59;7.25;;;4.90;;
55312;SDS011;46892;45.668;11.756;2023-06-26T09:39:29;7.95;;;5.30;;
55312;SDS011;46892;45.668;11.756;2023-06-26T09:41:56;7.20;;;5.03;;
55312;SDS011;46892;45.668;11.756;2023-06-26T09:44:22;6.75;;;4.53;;
55312;SDS011;46892;45.668;11.756;2023-06-26T09:46:48;8.82;;;5.10;;
55312;SDS011;46892;45.668;11.756;2023-06-26T09:49:15;7.18;;;5.00;;
55312;SDS011;46892;45.668;11.756;2023-06-26T09:51:41;6.68;;;4.50;;
55312;SDS011;46892;45.668;11.756;2023-06-26T09:54:08;6.80;;;4.50;;
55312;SDS011;46892;45.668;11.756;2023-06-26T09:56:37;8.02;;;4.40;;
55312;SDS011;46892;45.668;11.756;2023-06-26T09:59:03;8.18;;;4.97;;
55312;SDS011;46892;45.668;11.756;2023-06-26T10:01:31;7.65;;;4.95;;
55312;SDS011;46892;45.668;11.756;2023-06-26T10:03:57;6.60;;;4.57;;
55312;SDS011;46892;45.668;11.756;2023-06-26T10:06:27;8.30;;;4.55;;
55312;SDS011;46892;45.668;11.756;2023-06-26T10:08:58;6.47;;;4.53;;
55312;SDS011;46892;45.668;11.756;2023-06-26T10:11:27;5.50;;;3.58;;
55312;SDS011;46892;45.668;11.756;2023-06-26T10:13:59;7.90;;;4.53;;
55312;SDS011;46892;45.668;11.756;2023-06-26T10:16:26;7.03;;;4.55;;
55312;SDS011;46892;45.668;11.756;2023-06-26T10:18:53;7.28;;;5.07;;
55312;SDS011;46892;45.668;11.756;2023-06-26T10:21:24;9.57;;;5.50;;
55312;SDS011;46892;45.668;11.756;2023-06-26T10:23:51;6.97;;;4.35;;
55312;SDS011;46892;45.668;11.756;2023-06-26T10:26:20;7.88;;;4.70;;
55312;SDS011;46892;45.668;11.756;2023-06-26T10:28:47;6.05;;;4.45;;
55312;SDS011;46892;45.668;11.756;2023-06-26T10:31:17;6.60;;;4.72;;
55312;SDS011;46892;45.668;11.756;2023-06-26T10:33:47;8.85;;;5.15;;
55312;SDS011;46892;45.668;11.756;2023-06-26T10:36:17;8.57;;;4.72;;
55312;SDS011;46892;45.668;11.756;2023-06-26T10:38:55;6.90;;;4.32;;
55312;SDS011;46892;45.668;11.756;2023-06-26T10:41:23;6.57;;;4.30;;
55312;SDS011;46892;45.668;11.756;2023-06-26T10:43:50;8.93;;;4.30;;
55312;SDS011;46892;45.668;11.756;2023-06-26T10:46:33;6.80;;;4.28;;
55312;SDS011;46892;45.668;11.756;2023-06-26T10:49:30;8.65;;;4.57;;
55312;SDS011;46892;45.668;11.756;2023-06-26T10:51:56;5.53;;;4.07;;
55312;SDS011;46892;45.668;11.756;2023-06-26T10:54:30;7.68;;;4.68;;
55312;SDS011;46892;45.668;11.756;2023-06-26T10:56:58;6.32;;;3.95;;
55312;SDS011;46892;45.668;11.756;2023-06-26T10:59:28;6.63;;;4.30;;
55312;SDS011;46892;45.668;11.756;2023-06-26T11:01:58;7.78;;;4.60;;
55312;SDS011;46892;45.668;11.756;2023-06-26T11:07:21;8.40;;;4.00;;
55312;SDS011;46892;45.668;11.756;2023-06-26T11:09:54;7.63;;;4.20;;
55312;SDS011;46892;45.668;11.756;2023-06-26T11:12:38;7.18;;;4.72;;
55312;SDS011;46892;45.668;11.756;2023-06-26T11:15:13;7.93;;;5.15;;
55312;SDS011;46892;45.668;11.756;2023-06-26T11:17:40;7.78;;;4.35;;
55312;SDS011;46892;45.668;11.756;2023-06-26T11:20:10;6.90;;;4.40;;
55312;SDS011;46892;45.668;11.756;2023-06-26T11:22:38;7.13;;;4.72;;
55312;SDS011;46892;45.668;11.756;2023-06-26T11:25:08;7.13;;;4.18;;
55312;SDS011;46892;45.668;11.756;2023-06-26T11:30:07;7.32;;;4.50;;
55312;SDS011;46892;45.668;11.756;2023-06-26T11:32:34;7.25;;;4.43;;
55312;SDS011;46892;45.668;11.756;2023-06-26T11:35:00;7.28;;;4.55;;
55312;SDS011;46892;45.668;11.756;2023-06-26T11:37:26;7.93;;;4.90;;
55312;SDS011;46892;45.668;11.756;2023-06-26T11:39:52;6.80;;;4.70;;
55312;SDS011;46892;45.668;11.756;2023-06-26T11:42:19;7.43;;;4.80;;
55312;SDS011;46892;45.668;11.756;2023-06-26T11:44:46;7.13;;;4.60;;
55312;SDS011;46892;45.668;11.756;2023-06-26T11:49:42;7.97;;;4.68;;
55312;SDS011;46892;45.668;11.756;2023-06-26T11:52:12;8.93;;;5.25;;
55312;SDS011;46892;45.668;11.756;2023-06-26T11:54:39;5.85;;;4.70;;
55312;SDS011;46892;45.668;11.756;2023-06-26T11:57:05;7.30;;;4.32;;
55312;SDS011;46892;45.668;11.756;2023-06-26T11:59:32;10.13;;;5.57;;
55312;SDS011;46892;45.668;11.756;2023-06-26T12:02:13;9.52;;;5.30;;
55312;SDS011;46892;45.668;11.756;2023-06-26T12:04:40;8.45;;;5.40;;
55312;SDS011;46892;45.668;11.756;2023-06-26T12:07:08;8.13;;;5.25;;
55312;SDS011;46892;45.668;11.756;2023-06-26T12:09:42;6.00;;;4.43;;
55312;SDS011;46892;45.668;11.756;2023-06-26T12:12:10;7.55;;;4.93;;
55312;SDS011;46892;45.668;11.756;2023-06-26T12:14:37;7.78;;;4.75;;
55312;SDS011;46892;45.668;11.756;2023-06-26T12:17:09;6.45;;;4.70;;
55312;SDS011;46892;45.668;11.756;2023-06-26T12:19:37;7.07;;;5.05;;
55312;SDS011;46892;45.668;11.756;2023-06-26T12:22:07;7.95;;;5.20;;
55312;SDS011;46892;45.668;11.756;2023-06-26T12:24:33;6.28;;;5.00;;
55312;SDS011;46892;45.668;11.756;2023-06-26T12:27:02;5.97;;;4.47;;
55312;SDS011;46892;45.668;11.756;2023-06-26T12:31:58;6.75;;;4.40;;
55312;SDS011;46892;45.668;11.756;2023-06-26T12:34:28;8.98;;;4.80;;
55312;SDS011;46892;45.668;11.756;2023-06-26T12:36:58;5.75;;;4.38;;
55312;SDS011;46892;45.668;11.756;2023-06-26T12:39:28;7.30;;;4.70;;
55312;SDS011;46892;45.668;11.756;2023-06-26T12:44:27;6.80;;;5.35;;
55312;SDS011;46892;45.668;11.756;2023-06-26T12:46:59;5.55;;;4.20;;
55312;SDS011;46892;45.668;11.756;2023-06-26T12:49:35;10.00;;;6.00;;
55312;SDS011;46892;45.668;11.756;2023-06-26T12:52:04;9.65;;;5.30;;
55312;SDS011;46892;45.668;11.756;2023-06-26T12:54:33;7.78;;;4.70;;
55312;SDS011;46892;45.668;11.756;2023-06-26T12:56:59;9.18;;;5.20;;
55312;SDS011;46892;45.668;11.756;2023-06-26T12:59:25;7.93;;;4.57;;
55312;SDS011;46892;45.668;11.756;2023-06-26T13:01:50;7.10;;;4.68;;
55312;SDS011;46892;45.668;11.756;2023-06-26T13:04:17;9.25;;;4.82;;
55312;SDS011;46892;45.668;11.756;2023-06-26T13:06:43;7.28;;;4.40;;
55312;SDS011;46892;45.668;11.756;2023-06-26T13:09:09;7.63;;;4.50;;
55312;SDS011;46892;45.668;11.756;2023-06-26T13:11:36;6.88;;;5.00;;
55312;SDS011;46892;45.668;11.756;2023-06-26T13:14:02;7.60;;;4.50;;
55312;SDS011;46892;45.668;11.756;2023-06-26T13:16:29;7.78;;;4.75;;
55312;SDS011;46892;45.668;11.756;2023-06-26T13:18:55;5.38;;;4.10;;
55312;SDS011;46892;45.668;11.756;2023-06-26T13:21:23;8.23;;;4.50;;
55312;SDS011;46892;45.668;11.756;2023-06-26T13:23:48;5.55;;;4.10;;
55312;SDS011;46892;45.668;11.756;2023-06-26T13:26:14;7.68;;;4.78;;
55312;SDS011;46892;45.668;11.756;2023-06-26T13:28:40;9.30;;;4.28;;
55312;SDS011;46892;45.668;11.756;2023-06-26T13:31:06;6.20;;;4.50;;
55312;SDS011;46892;45.668;11.756;2023-06-26T13:33:31;6.35;;;4.63;;
55312;SDS011;46892;45.668;11.756;2023-06-26T13:35:57;7.05;;;4.75;;
55312;SDS011;46892;45.668;11.756;2023-06-26T13:38:23;7.72;;;4.07;;
55312;SDS011;46892;45.668;11.756;2023-06-26T13:40:53;6.00;;;4.18;;
55312;SDS011;46892;45.668;11.756;2023-06-26T13:43:20;7.00;;;4.32;;
55312;SDS011;46892;45.668;11.756;2023-06-26T13:45:47;8.43;;;4.18;;
55312;SDS011;46892;45.668;11.756;2023-06-26T13:48:14;8.48;;;4.63;;
55312;SDS011;46892;45.668;11.756;2023-06-26T13:50:40;8.65;;;4.38;;
55312;SDS011;46892;45.668;11.756;2023-06-26T13:53:06;6.70;;;4.15;;
55312;SDS011;46892;45.668;11.756;2023-06-26T13:55:32;8.23;;;4.40;;
55312;SDS011;46892;45.668;11.756;2023-06-26T13:57:59;6.53;;;4.38;;
55312;SDS011;46892;45.668;11.756;2023-06-26T14:00:24;6.20;;;4.20;;
55312;SDS011;46892;45.668;11.756;2023-06-26T14:02:50;7.53;;;4.20;;
55312;SDS011;46892;45.668;11.756;2023-06-26T14:05:17;6.13;;;4.20;;
55312;SDS011;46892;45.668;11.756;2023-06-26T14:07:43;7.88;;;3.90;;
55312;SDS011;46892;45.668;11.756;2023-06-26T14:10:10;6.30;;;4.00;;
55312;SDS011;46892;45.668;11.756;2023-06-26T14:12:35;6.18;;;4.18;;
55312;SDS011;46892;45.668;11.756;2023-06-26T14:15:01;8.25;;;4.57;;
55312;SDS011;46892;45.668;11.756;2023-06-26T14:17:28;8.00;;;4.70;;
55312;SDS011;46892;45.668;11.756;2023-06-26T14:19:54;8.25;;;4.18;;
55312;SDS011;46892;45.668;11.756;2023-06-26T14:22:20;7.45;;;4.00;;
55312;SDS011;46892;45.668;11.756;2023-06-26T14:24:46;5.72;;;3.88;;
55312;SDS011;46892;45.668;11.756;2023-06-26T14:27:14;7.82;;;3.85;;
55312;SDS011;46892;45.668;11.756;2023-06-26T14:29:40;5.90;;;3.83;;
55312;SDS011;46892;45.668;11.756;2023-06-26T14:32:06;6.20;;;4.25;;
55312;SDS011;46892;45.668;11.756;2023-06-26T14:34:32;5.30;;;3.83;;
55312;SDS011;46892;45.668;11.756;2023-06-26T14:36:58;5.43;;;4.10;;
55312;SDS011;46892;45.668;11.756;2023-06-26T14:39:24;7.05;;;3.97;;
55312;SDS011;46892;45.668;11.756;2023-06-26T14:41:50;6.28;;;4.10;;
55312;SDS011;46892;45.668;11.756;2023-06-26T14:44:16;5.93;;;4.10;;
55312;SDS011;46892;45.668;11.756;2023-06-26T14:46:41;5.95;;;3.88;;
55312;SDS011;46892;45.668;11.756;2023-06-26T14:49:08;5.78;;;3.47;;
55312;SDS011;46892;45.668;11.756;2023-06-26T14:51:33;6.28;;;4.05;;
55312;SDS011;46892;45.668;11.756;2023-06-26T14:53:59;6.25;;;4.07;;
55312;SDS011;46892;45.668;11.756;2023-06-26T14:56:25;5.75;;;3.42;;
55312;SDS011;46892;45.668;11.756;2023-06-26T14:58:51;6.60;;;4.05;;